Wednesday, January 17, 2018, 4:43 PM EST
Back to Local

KNYC, New York City Central Park

Location: New York, NY, United States Lat: 40.783
Local Time: 4:43 PM EST (21:43 GMT) Lon: -73.967
Time Zone: US/Eastern Elev: 157 ft

Show me the last for .
Show Decoded

2018-01-17 15:51 METAR KNYC 172051Z AUTO 28006G15KT 10SM OVC015 M01/M04 A3020 RMK AO2 SNE09
                 SLP220 P0000 60000 T10061044 55008 =
2018-01-17 15:19 METAR KNYC 172019Z AUTO 28003KT 8SM BKN013 OVC020 01/M02 A3019 RMK AO2 SNE09
                 P0000 T00061022 =
2018-01-17 14:51 METAR KNYC 171951Z AUTO 30007KT 2 1/2SM -SN FEW013 BKN035 OVC075 01/M02 A3019
                 RMK AO2 SNB43 SLP216 P0000 T00061022 =
2018-01-17 14:33 METAR KNYC 171933Z AUTO 30006KT 10SM SCT013 BKN070 OVC085 01/M02 A3019 RMK AO2
                 T00061017 =
2018-01-17 13:51 METAR KNYC 171851Z AUTO VRB04KT 9SM OVC013 01/M01 A3020 RMK AO2 SNB03E25 SLP219
                 P0000 T00061011 =
2018-01-17 13:44 METAR KNYC 171844Z AUTO VRB06KT 7SM BKN013 OVC021 01/M01 A3020 RMK AO2 SNB03E25
                 P0000 T00061011 =
2018-01-17 13:30 METAR KNYC 171830Z AUTO 31008KT 3SM BR FEW010 BKN015 OVC025 01/M01 A3020 RMK AO2
                 SNB03E25 P0000 T00061011 =
2018-01-17 13:21 METAR KNYC 171821Z AUTO 29007KT 2SM -SN BR FEW010 OVC015 01/M01 A3021 RMK AO2
                 SNB03 P0000 T00061011 =
2018-01-17 13:11 METAR KNYC 171811Z AUTO VRB03KT 1 3/4SM -SN BR FEW009 OVC017 01/M01 A3021 RMK
                 AO2 SNB03 P0000 T00061006 =
2018-01-17 13:01 METAR KNYC 171801Z AUTO 31007KT 3SM BR FEW009 OVC017 01/M01 A3022 =
2018-01-17 12:51 METAR KNYC 171751Z AUTO 31006KT 2 1/2SM BR FEW010 OVC015 01/M01 A3022 RMK AO2
                 SNE1655 SLP228 P0000 60003 T00061006 10011 20000 58018 =
2018-01-17 12:45 METAR KNYC 171745Z AUTO 31006KT 2 1/2SM BR SCT010 OVC015 01/M01 A3023 RMK AO2
                 SNE1655 P0000 =
2018-01-17 12:34 METAR KNYC 171734Z AUTO 30007KT 3SM BR SCT008 OVC013 01/M01 A3023 RMK AO2
                 SNE1655 P0000 T00061006 =
2018-01-17 12:23 METAR KNYC 171723Z AUTO 30006KT 2SM BR OVC010 01/M01 A3023 RMK AO2 SNE1655 P0000
                 T00061006 =
2018-01-17 12:16 METAR KNYC 171716Z AUTO 30006KT 2 1/2SM BR OVC009 01/M01 A3024 RMK AO2 SNE1655
                 CIG 006V014 P0000 T00061006 =
2018-01-17 12:06 METAR KNYC 171706Z AUTO 31006KT 3SM BR BKN009 BKN012 OVC044 01/M01 A3023 RMK AO2
                 SNE1655 P0000 T00061006 =
2018-01-17 11:51 METAR KNYC 171651Z AUTO VRB04KT 2SM -SN BR BKN007 BKN024 OVC039 01/M01 A3024 RMK
                 AO2 SLP235 P0001 T00061006 =
2018-01-17 11:47 METAR KNYC 171647Z AUTO 31006KT 2SM -SN BR BKN007 BKN024 OVC037 01/M01 A3025 RMK
                 AO2 P0001 =
2018-01-17 11:39 METAR KNYC 171639Z AUTO 30006KT 1 1/2SM -SN BR SCT007 BKN025 OVC037 00/M01 A3025
                 RMK AO2 P0001 T00001011 =
2018-01-17 11:30 METAR KNYC 171630Z AUTO VRB05KT 1SM -SN BR BKN005 BKN014 OVC023 00/M01 A3026 RMK
                 AO2 P0001 T00001006 =
2018-01-17 11:15 METAR KNYC 171615Z AUTO 30006KT 3/4SM -SN BR OVC004 01/M01 A3026 RMK AO2 P0001
                 T00061006 =
2018-01-17 10:51 METAR KNYC 171551Z AUTO 30005KT 3/4SM -SN BR OVC005 01/M01 A3027 RMK AO2 SNB1459
                 SLP244 P0002 T00061006 =
2018-01-17 09:51 METAR KNYC 171451Z AUTO VRB04KT 3/4SM BR OVC005 01/00 A3028 RMK AO2 SLP246
                 T00060000 51003 PWINO FZRANO $ =
2018-01-17 09:28 METAR KNYC 171428Z AUTO 30003KT 1 1/4SM BR OVC005 01/00 A3028 RMK AO2 T00060000
                 PWINO FZRANO $ =
2018-01-17 09:05 METAR KNYC 171405Z AUTO 00000KT 1 1/4SM BR OVC004 01/00 A3028 RMK AO2 T00060000
                 PWINO FZRANO $ =
2018-01-17 08:51 METAR KNYC 171351Z AUTO 00000KT 1SM BR BKN005 OVC011 01/00 A3028 RMK AO2 SLP246
                 T00060000 PWINO FZRANO $ =
2018-01-17 08:20 METAR KNYC 171320Z AUTO VRB03KT 3/4SM BR BKN005 OVC013 01/00 A3028 RMK AO2
                 T00060000 PWINO FZRANO $ =
2018-01-17 07:51 METAR KNYC 171251Z AUTO 00000KT 2SM BR BKN005 OVC012 01/00 A3028 RMK AO2 SLP245
                 T00060000 PWINO FZRANO $ =
2018-01-17 07:42 METAR KNYC 171242Z AUTO 00000KT 2SM BR BKN005 OVC012 01/00 A3027 =
2018-01-17 07:33 METAR KNYC 171233Z AUTO 29004KT 3SM BR BKN005 OVC011 01/00 A3027 RMK AO2
                 T00060000 PWINO FZRANO $ =
2018-01-17 06:51 METAR KNYC 171151Z AUTO 00000KT 3SM BR OVC004 01/01 A3027 RMK AO2 SLP243
                 T00110006 10022 20011 56002 PWINO FZRANO $ =
2018-01-17 06:08 METAR KNYC 171108Z AUTO 34005KT 3SM BR OVC004 02/01 A3027 RMK AO2 T00170011
                 PWINO FZRANO $ =
2018-01-17 05:51 METAR KNYC 171051Z AUTO 33005KT 3SM BR OVC005 02/01 A3027 RMK AO2 SLP243
                 T00170006 PWINO FZRANO $ =
2018-01-17 04:51 METAR KNYC 170951Z AUTO 02003KT 5SM BR OVC005 02/02 A3027 RMK AO2 SLP242
                 T00220017 PWINO FZRANO $ =
2018-01-17 03:51 METAR KNYC 170851Z AUTO 06007KT 5SM BR OVC007 02/01 A3028 RMK AO2 SLP245
                 T00170011 58017 PWINO FZRANO $ =
2018-01-17 02:51 METAR KNYC 170751Z AUTO 05005KT 5SM BR OVC008 02/01 A3030 RMK AO2 SLP253
                 T00220006 PWINO FZRANO $ =
2018-01-17 02:23 METAR KNYC 170723Z AUTO 04005KT 7SM OVC009 02/01 A3031 =
2018-01-17 01:51 METAR KNYC 170651Z AUTO 05005KT 10SM OVC010 02/00 A3031 RMK AO2 SLP258 T00220000
                 PWINO FZRANO $ =
2018-01-17 00:51 METAR KNYC 170551Z AUTO 01003KT 10SM BKN011 BKN017 OVC028 02/M01 A3032 RMK AO2
                 SLP262 T00221006 10022 20006 58023 PWINO FZRANO $ =
2018-01-17 00:21 METAR KNYC 170521Z AUTO 01004KT 10SM BKN012 OVC022 02/M01 A3034 RMK AO2
                 T00171006 PWINO FZRANO $ =
2018-01-16 23:51 METAR KNYC 170451Z AUTO 03004KT 10SM SCT012 BKN019 OVC039 02/M01 A3035 RMK AO2
                 SLP269 T00171011 400221039 PWINO FZRANO $ =
2018-01-16 23:28 METAR KNYC 170428Z AUTO 03004KT 10SM FEW013 BKN018 BKN034 02/M01 A3036 RMK AO2
                 T00171011 PWINO FZRANO $ =
2018-01-16 22:51 METAR KNYC 170351Z AUTO 04003KT 10SM FEW018 SCT036 01/M01 A3037 RMK AO2 SLP278
                 T00111011 PWINO FZRANO $ =
2018-01-16 21:51 METAR KNYC 170251Z AUTO 04003KT 10SM FEW020 FEW028 01/M02 A3039 RMK AO2 SLP285
                 T00111017 56012 PWINO FZRANO $ =
2018-01-16 21:05 METAR KNYC 170205Z AUTO 06004KT 10SM FEW021 FEW029 BKN110 01/M02 A3040 RMK AO2
                 T00111017 PWINO FZRANO $ =
2018-01-16 20:51 METAR KNYC 170151Z AUTO 07004KT 10SM FEW021 BKN029 OVC110 01/M02 A3040 RMK AO2
                 SLP288 T00111022 PWINO FZRANO $ =
2018-01-16 19:51 METAR KNYC 170051Z AUTO 05005KT 10SM OVC029 01/M02 A3041 RMK AO2 SLP292
                 T00111022 PWINO FZRANO $ =
2018-01-16 19:11 METAR KNYC 170011Z AUTO 00000KT 10SM OVC029 01/M02 A3043 RMK AO2 T00111022 PWINO
                 FZRANO $ =
2018-01-16 18:51 METAR KNYC 162351Z AUTO VRB04KT 10SM OVC030 01/M03 A3043 RMK AO2 SLP296
                 T00061028 10022 20006 55002 PWINO FZRANO $ =
2018-01-16 18:36 METAR KNYC 162336Z AUTO 06003KT 10SM OVC030 01/M03 A3043 RMK AO2 T00061028 PWINO
                 FZRANO $ =
2018-01-16 18:17 METAR KNYC 162317Z AUTO 00000KT 10SM OVC029 01/M03 A3042 RMK AO2 T00061028 PWINO
                 FZRANO $ =
2018-01-16 17:51 METAR KNYC 162251Z AUTO 07004KT 10SM OVC030 01/M03 A3042 RMK AO2 SLP295
                 T00061028 PWINO FZRANO $ =
2018-01-16 17:38 METAR KNYC 162238Z AUTO 06005KT 10SM BKN029 OVC070 01/M03 A3042 RMK AO2
                 T00061028 PWINO FZRANO $ =
2018-01-16 17:20 METAR KNYC 162220Z AUTO 07004KT 10SM SCT029 OVC070 01/M03 A3042 RMK AO2
                 T00061033 PWINO FZRANO $ =
2018-01-16 16:51 METAR KNYC 162151Z AUTO 07004KT 10SM OVC029 01/M03 A3042 RMK AO2 SLP295
                 T00061028 PWINO FZRANO $ =

Support USWX by starting your Amazon purchase here.